Arcadia, Texas
Current Conditions -  °F | °C
As of 9:53 AM on Sunday 25 Jan 2015 (Local Time) from KLVJ Reporting Station
Clear Clear  
Wind Chill: 56°   Ceiling: Unl
Heat Index: 56°   Visibility: 10mi
Dew Point: 40°   Wind: 7mph
Humidity: 55%   Direction: 220°SW
Pressure: 30.06"   Gusts: NA
Location:  29.3723°N, 95.1328°W
Report Text: KLVJ 251553Z AUTO 22006KT 10SM CLR 13/04 A3006 RMK AO2 SLP177 T01330044
Loading
Personal Weather Stations






























Interactive Weather Map New forecast layout! Learn more

10-Day Weather Forecast

Advertisements
Track Severe Weather on mobile